sensor_id;sensor_type;location;lat;lon;timestamp;temperature;humidity
61398;DHT22;47267;48.130;-2.040;2023-02-26T00:01:40;19.20;46.20
61398;DHT22;47267;48.130;-2.040;2023-02-26T00:04:06;19.20;46.20
61398;DHT22;47267;48.130;-2.040;2023-02-26T00:06:35;19.20;46.10
61398;DHT22;47267;48.130;-2.040;2023-02-26T00:09:02;19.20;46.10
61398;DHT22;47267;48.130;-2.040;2023-02-26T00:11:28;19.20;46.10
61398;DHT22;47267;48.130;-2.040;2023-02-26T00:13:54;19.20;46.00
61398;DHT22;47267;48.130;-2.040;2023-02-26T00:16:31;19.20;46.00
61398;DHT22;47267;48.130;-2.040;2023-02-26T00:18:58;19.20;46.00
61398;DHT22;47267;48.130;-2.040;2023-02-26T00:21:26;19.10;45.90
61398;DHT22;47267;48.130;-2.040;2023-02-26T00:23:54;19.10;45.90
61398;DHT22;47267;48.130;-2.040;2023-02-26T00:26:25;19.10;45.90
61398;DHT22;47267;48.130;-2.040;2023-02-26T00:28:51;19.10;45.90
61398;DHT22;47267;48.130;-2.040;2023-02-26T00:31:18;19.10;45.90
61398;DHT22;47267;48.130;-2.040;2023-02-26T00:33:46;19.10;45.90
61398;DHT22;47267;48.130;-2.040;2023-02-26T00:41:35;19.10;45.80
61398;DHT22;47267;48.130;-2.040;2023-02-26T00:44:01;19.10;45.80
61398;DHT22;47267;48.130;-2.040;2023-02-26T00:52:00;19.00;45.70
61398;DHT22;47267;48.130;-2.040;2023-02-26T00:54:28;19.00;45.70
61398;DHT22;47267;48.130;-2.040;2023-02-26T00:56:56;19.00;45.70
61398;DHT22;47267;48.130;-2.040;2023-02-26T00:59:22;19.00;45.70
61398;DHT22;47267;48.130;-2.040;2023-02-26T01:01:49;19.00;45.60
61398;DHT22;47267;48.130;-2.040;2023-02-26T01:04:18;19.00;45.60
61398;DHT22;47267;48.130;-2.040;2023-02-26T01:06:53;19.00;45.60
61398;DHT22;47267;48.130;-2.040;2023-02-26T01:09:33;19.00;45.60
61398;DHT22;47267;48.130;-2.040;2023-02-26T01:12:04;19.00;45.60
61398;DHT22;47267;48.130;-2.040;2023-02-26T01:14:30;19.00;45.60
61398;DHT22;47267;48.130;-2.040;2023-02-26T01:17:14;19.00;45.50
61398;DHT22;47267;48.130;-2.040;2023-02-26T01:19:43;19.00;45.50
61398;DHT22;47267;48.130;-2.040;2023-02-26T01:25:26;18.90;45.50
61398;DHT22;47267;48.130;-2.040;2023-02-26T01:27:53;18.90;45.50
61398;DHT22;47267;48.130;-2.040;2023-02-26T01:30:21;18.90;45.50
61398;DHT22;47267;48.130;-2.040;2023-02-26T01:51:17;18.80;45.40
61398;DHT22;47267;48.130;-2.040;2023-02-26T01:53:43;18.80;45.50
61398;DHT22;47267;48.130;-2.040;2023-02-26T01:56:15;18.80;45.50
61398;DHT22;47267;48.130;-2.040;2023-02-26T01:58:42;18.80;45.40
61398;DHT22;47267;48.130;-2.040;2023-02-26T02:01:08;18.80;45.40
61398;DHT22;47267;48.130;-2.040;2023-02-26T02:03:37;18.80;45.50
61398;DHT22;47267;48.130;-2.040;2023-02-26T02:06:06;18.80;45.40
61398;DHT22;47267;48.130;-2.040;2023-02-26T02:08:33;18.80;45.30
61398;DHT22;47267;48.130;-2.040;2023-02-26T02:11:02;18.80;45.30
61398;DHT22;47267;48.130;-2.040;2023-02-26T02:16:53;18.80;45.30
61398;DHT22;47267;48.130;-2.040;2023-02-26T02:25:25;18.80;45.20
61398;DHT22;47267;48.130;-2.040;2023-02-26T02:31:17;18.80;45.20
61398;DHT22;47267;48.130;-2.040;2023-02-26T02:34:07;18.70;45.10
61398;DHT22;47267;48.130;-2.040;2023-02-26T02:36:48;18.70;45.10
61398;DHT22;47267;48.130;-2.040;2023-02-26T02:39:24;18.70;45.10
61398;DHT22;47267;48.130;-2.040;2023-02-26T02:41:55;18.70;45.00
61398;DHT22;47267;48.130;-2.040;2023-02-26T02:44:25;18.70;45.10
61398;DHT22;47267;48.130;-2.040;2023-02-26T02:46:55;18.70;45.00
61398;DHT22;47267;48.130;-2.040;2023-02-26T02:49:33;18.70;45.00
61398;DHT22;47267;48.130;-2.040;2023-02-26T02:52:32;18.70;45.00
61398;DHT22;47267;48.130;-2.040;2023-02-26T02:55:11;18.70;45.20
61398;DHT22;47267;48.130;-2.040;2023-02-26T02:58:00;18.70;45.00
61398;DHT22;47267;48.130;-2.040;2023-02-26T03:00:30;18.70;44.90
61398;DHT22;47267;48.130;-2.040;2023-02-26T03:03:19;18.60;44.90
61398;DHT22;47267;48.130;-2.040;2023-02-26T03:05:46;18.60;44.80
61398;DHT22;47267;48.130;-2.040;2023-02-26T03:08:16;18.60;44.80
61398;DHT22;47267;48.130;-2.040;2023-02-26T03:10:42;18.60;44.80
61398;DHT22;47267;48.130;-2.040;2023-02-26T03:13:21;18.60;44.80
61398;DHT22;47267;48.130;-2.040;2023-02-26T03:21:54;18.60;44.80
61398;DHT22;47267;48.130;-2.040;2023-02-26T03:24:30;18.60;44.80
61398;DHT22;47267;48.130;-2.040;2023-02-26T03:32:34;18.60;44.80
61398;DHT22;47267;48.130;-2.040;2023-02-26T03:35:17;18.50;44.80
61398;DHT22;47267;48.130;-2.040;2023-02-26T03:37:47;18.60;44.80
61398;DHT22;47267;48.130;-2.040;2023-02-26T03:40:42;18.50;44.70
61398;DHT22;47267;48.130;-2.040;2023-02-26T03:43:25;18.50;44.70
61398;DHT22;47267;48.130;-2.040;2023-02-26T03:45:55;18.50;44.70
61398;DHT22;47267;48.130;-2.040;2023-02-26T03:48:26;18.50;44.70
61398;DHT22;47267;48.130;-2.040;2023-02-26T03:50:57;18.50;44.70
61398;DHT22;47267;48.130;-2.040;2023-02-26T03:53:33;18.50;44.70
61398;DHT22;47267;48.130;-2.040;2023-02-26T03:56:09;18.50;44.70
61398;DHT22;47267;48.130;-2.040;2023-02-26T03:58:36;18.50;44.80
61398;DHT22;47267;48.130;-2.040;2023-02-26T04:01:06;18.50;44.70
61398;DHT22;47267;48.130;-2.040;2023-02-26T04:06:09;18.50;44.70
61398;DHT22;47267;48.130;-2.040;2023-02-26T04:08:35;18.50;44.70
61398;DHT22;47267;48.130;-2.040;2023-02-26T04:11:10;18.50;44.70
61398;DHT22;47267;48.130;-2.040;2023-02-26T04:13:36;18.50;44.70
61398;DHT22;47267;48.130;-2.040;2023-02-26T04:16:03;18.50;44.70
61398;DHT22;47267;48.130;-2.040;2023-02-26T04:18:28;18.50;45.30
61398;DHT22;47267;48.130;-2.040;2023-02-26T04:20:54;18.50;44.70
61398;DHT22;47267;48.130;-2.040;2023-02-26T04:23:20;18.50;45.30
61398;DHT22;47267;48.130;-2.040;2023-02-26T04:25:46;18.50;44.70
61398;DHT22;47267;48.130;-2.040;2023-02-26T04:28:12;18.50;44.70
61398;DHT22;47267;48.130;-2.040;2023-02-26T04:30:38;18.50;44.60
61398;DHT22;47267;48.130;-2.040;2023-02-26T04:33:03;18.40;45.20
61398;DHT22;47267;48.130;-2.040;2023-02-26T04:35:29;18.40;44.60
61398;DHT22;47267;48.130;-2.040;2023-02-26T04:37:55;18.40;44.60
61398;DHT22;47267;48.130;-2.040;2023-02-26T04:40:21;18.40;44.60
61398;DHT22;47267;48.130;-2.040;2023-02-26T04:42:48;18.40;44.60
61398;DHT22;47267;48.130;-2.040;2023-02-26T04:45:14;18.40;44.60
61398;DHT22;47267;48.130;-2.040;2023-02-26T04:47:40;18.40;44.50
61398;DHT22;47267;48.130;-2.040;2023-02-26T04:50:06;18.40;44.50
61398;DHT22;47267;48.130;-2.040;2023-02-26T04:52:32;18.40;44.60
61398;DHT22;47267;48.130;-2.040;2023-02-26T04:54:58;18.40;44.60
61398;DHT22;47267;48.130;-2.040;2023-02-26T04:57:23;18.40;44.50
61398;DHT22;47267;48.130;-2.040;2023-02-26T04:59:49;18.40;44.50
61398;DHT22;47267;48.130;-2.040;2023-02-26T05:02:15;18.40;44.50
61398;DHT22;47267;48.130;-2.040;2023-02-26T05:04:40;18.40;44.50
61398;DHT22;47267;48.130;-2.040;2023-02-26T05:07:06;18.40;44.50
61398;DHT22;47267;48.130;-2.040;2023-02-26T05:09:32;18.40;44.50
61398;DHT22;47267;48.130;-2.040;2023-02-26T05:11:57;18.40;44.50
61398;DHT22;47267;48.130;-2.040;2023-02-26T05:14:23;18.40;44.50
61398;DHT22;47267;48.130;-2.040;2023-02-26T05:16:49;18.40;44.50
61398;DHT22;47267;48.130;-2.040;2023-02-26T05:19:14;18.40;44.50
61398;DHT22;47267;48.130;-2.040;2023-02-26T05:21:40;18.40;44.50
61398;DHT22;47267;48.130;-2.040;2023-02-26T05:24:06;18.40;44.40
61398;DHT22;47267;48.130;-2.040;2023-02-26T05:26:32;18.40;44.40
61398;DHT22;47267;48.130;-2.040;2023-02-26T05:28:57;18.40;44.50
61398;DHT22;47267;48.130;-2.040;2023-02-26T05:31:23;18.30;44.40
61398;DHT22;47267;48.130;-2.040;2023-02-26T05:33:51;18.40;44.40
61398;DHT22;47267;48.130;-2.040;2023-02-26T05:36:17;18.40;44.40
61398;DHT22;47267;48.130;-2.040;2023-02-26T05:38:42;18.30;44.40
61398;DHT22;47267;48.130;-2.040;2023-02-26T05:41:08;18.30;44.30
61398;DHT22;47267;48.130;-2.040;2023-02-26T05:43:34;18.30;44.30
61398;DHT22;47267;48.130;-2.040;2023-02-26T05:46:00;18.30;44.30
61398;DHT22;47267;48.130;-2.040;2023-02-26T05:48:26;18.30;44.30
61398;DHT22;47267;48.130;-2.040;2023-02-26T05:50:52;18.30;44.30
61398;DHT22;47267;48.130;-2.040;2023-02-26T05:53:18;18.30;44.30
61398;DHT22;47267;48.130;-2.040;2023-02-26T05:55:44;18.30;44.30
61398;DHT22;47267;48.130;-2.040;2023-02-26T05:58:10;18.30;44.20
61398;DHT22;47267;48.130;-2.040;2023-02-26T06:00:36;18.30;44.20
61398;DHT22;47267;48.130;-2.040;2023-02-26T06:03:02;18.30;44.20
61398;DHT22;47267;48.130;-2.040;2023-02-26T06:05:27;18.30;44.30
61398;DHT22;47267;48.130;-2.040;2023-02-26T06:07:53;18.30;44.30
61398;DHT22;47267;48.130;-2.040;2023-02-26T06:10:19;18.30;44.20
61398;DHT22;47267;48.130;-2.040;2023-02-26T06:12:45;18.30;44.20
61398;DHT22;47267;48.130;-2.040;2023-02-26T06:15:11;18.30;44.20
61398;DHT22;47267;48.130;-2.040;2023-02-26T06:17:37;18.30;44.20
61398;DHT22;47267;48.130;-2.040;2023-02-26T06:20:04;18.30;44.20
61398;DHT22;47267;48.130;-2.040;2023-02-26T06:22:30;18.30;44.20
61398;DHT22;47267;48.130;-2.040;2023-02-26T06:24:56;18.30;44.20
61398;DHT22;47267;48.130;-2.040;2023-02-26T06:27:22;18.30;44.20
61398;DHT22;47267;48.130;-2.040;2023-02-26T06:29:48;18.30;44.20
61398;DHT22;47267;48.130;-2.040;2023-02-26T06:32:14;18.30;44.20
61398;DHT22;47267;48.130;-2.040;2023-02-26T06:34:40;18.30;44.20
61398;DHT22;47267;48.130;-2.040;2023-02-26T06:37:05;18.20;44.10
61398;DHT22;47267;48.130;-2.040;2023-02-26T06:39:31;18.20;44.10
61398;DHT22;47267;48.130;-2.040;2023-02-26T06:41:57;18.20;44.10
61398;DHT22;47267;48.130;-2.040;2023-02-26T06:44:23;18.20;44.10
61398;DHT22;47267;48.130;-2.040;2023-02-26T06:46:49;18.20;44.10
61398;DHT22;47267;48.130;-2.040;2023-02-26T06:49:15;18.20;44.10
61398;DHT22;47267;48.130;-2.040;2023-02-26T06:51:40;18.20;44.70
61398;DHT22;47267;48.130;-2.040;2023-02-26T06:54:06;18.20;44.10
61398;DHT22;47267;48.130;-2.040;2023-02-26T06:56:32;18.20;44.10
61398;DHT22;47267;48.130;-2.040;2023-02-26T06:58:58;18.20;44.10
61398;DHT22;47267;48.130;-2.040;2023-02-26T07:01:23;18.20;44.10
61398;DHT22;47267;48.130;-2.040;2023-02-26T07:03:49;18.20;44.10
61398;DHT22;47267;48.130;-2.040;2023-02-26T07:06:15;18.20;44.00
61398;DHT22;47267;48.130;-2.040;2023-02-26T07:08:41;18.20;44.10
61398;DHT22;47267;48.130;-2.040;2023-02-26T07:11:07;18.20;44.10
61398;DHT22;47267;48.130;-2.040;2023-02-26T07:13:35;18.10;44.00
61398;DHT22;47267;48.130;-2.040;2023-02-26T07:16:01;18.20;44.70
61398;DHT22;47267;48.130;-2.040;2023-02-26T07:18:27;18.20;44.10
61398;DHT22;47267;48.130;-2.040;2023-02-26T07:20:52;18.20;44.00
61398;DHT22;47267;48.130;-2.040;2023-02-26T07:23:18;18.20;44.00
61398;DHT22;47267;48.130;-2.040;2023-02-26T07:25:44;18.20;44.00
61398;DHT22;47267;48.130;-2.040;2023-02-26T07:28:10;18.20;43.90
61398;DHT22;47267;48.130;-2.040;2023-02-26T07:30:36;18.20;44.00
61398;DHT22;47267;48.130;-2.040;2023-02-26T07:33:01;18.20;44.00
61398;DHT22;47267;48.130;-2.040;2023-02-26T07:35:27;18.10;43.90
61398;DHT22;47267;48.130;-2.040;2023-02-26T07:37:52;18.10;43.90
61398;DHT22;47267;48.130;-2.040;2023-02-26T07:40:18;18.10;43.90
61398;DHT22;47267;48.130;-2.040;2023-02-26T07:42:44;18.10;43.80
61398;DHT22;47267;48.130;-2.040;2023-02-26T07:45:10;18.10;43.90
61398;DHT22;47267;48.130;-2.040;2023-02-26T07:47:36;18.10;43.90
61398;DHT22;47267;48.130;-2.040;2023-02-26T07:50:02;18.10;43.90
61398;DHT22;47267;48.130;-2.040;2023-02-26T07:52:28;18.10;43.80
61398;DHT22;47267;48.130;-2.040;2023-02-26T07:54:54;18.10;43.80
61398;DHT22;47267;48.130;-2.040;2023-02-26T07:57:20;18.10;43.90
61398;DHT22;47267;48.130;-2.040;2023-02-26T07:59:45;18.10;43.80
61398;DHT22;47267;48.130;-2.040;2023-02-26T08:02:12;18.10;43.80
61398;DHT22;47267;48.130;-2.040;2023-02-26T08:04:38;18.10;43.80
61398;DHT22;47267;48.130;-2.040;2023-02-26T08:07:04;18.10;43.80
61398;DHT22;47267;48.130;-2.040;2023-02-26T08:09:30;18.10;43.70
61398;DHT22;47267;48.130;-2.040;2023-02-26T08:11:56;18.10;43.80
61398;DHT22;47267;48.130;-2.040;2023-02-26T08:14:22;18.10;43.80
61398;DHT22;47267;48.130;-2.040;2023-02-26T08:16:48;18.10;43.80
61398;DHT22;47267;48.130;-2.040;2023-02-26T08:19:13;18.10;43.80
61398;DHT22;47267;48.130;-2.040;2023-02-26T08:21:39;18.10;43.70
61398;DHT22;47267;48.130;-2.040;2023-02-26T08:24:05;18.00;43.60
61398;DHT22;47267;48.130;-2.040;2023-02-26T08:26:34;18.00;43.60
61398;DHT22;47267;48.130;-2.040;2023-02-26T08:29:00;18.00;43.50
61398;DHT22;47267;48.130;-2.040;2023-02-26T08:31:27;18.00;43.60
61398;DHT22;47267;48.130;-2.040;2023-02-26T08:33:53;18.00;43.50
61398;DHT22;47267;48.130;-2.040;2023-02-26T08:36:19;18.00;43.60
61398;DHT22;47267;48.130;-2.040;2023-02-26T08:38:46;18.00;43.60
61398;DHT22;47267;48.130;-2.040;2023-02-26T08:41:13;18.00;43.60
61398;DHT22;47267;48.130;-2.040;2023-02-26T08:43:38;18.00;43.60
61398;DHT22;47267;48.130;-2.040;2023-02-26T08:46:04;18.00;43.70
61398;DHT22;47267;48.130;-2.040;2023-02-26T08:48:30;18.00;43.70
61398;DHT22;47267;48.130;-2.040;2023-02-26T08:50:56;18.00;43.80
61398;DHT22;47267;48.130;-2.040;2023-02-26T08:53:22;18.00;43.70
61398;DHT22;47267;48.130;-2.040;2023-02-26T08:55:49;18.00;43.80
61398;DHT22;47267;48.130;-2.040;2023-02-26T08:58:16;18.00;43.70
61398;DHT22;47267;48.130;-2.040;2023-02-26T09:00:42;18.00;43.70
61398;DHT22;47267;48.130;-2.040;2023-02-26T09:03:07;18.00;43.70
61398;DHT22;47267;48.130;-2.040;2023-02-26T09:05:33;18.00;43.70
61398;DHT22;47267;48.130;-2.040;2023-02-26T09:07:59;18.00;43.70
61398;DHT22;47267;48.130;-2.040;2023-02-26T09:10:25;18.00;43.80
61398;DHT22;47267;48.130;-2.040;2023-02-26T09:12:50;18.00;43.80
61398;DHT22;47267;48.130;-2.040;2023-02-26T09:15:16;18.00;43.80
61398;DHT22;47267;48.130;-2.040;2023-02-26T09:17:42;18.00;43.90
61398;DHT22;47267;48.130;-2.040;2023-02-26T09:20:09;18.00;43.90
61398;DHT22;47267;48.130;-2.040;2023-02-26T09:22:35;18.00;43.90
61398;DHT22;47267;48.130;-2.040;2023-02-26T09:25:02;18.00;44.00
61398;DHT22;47267;48.130;-2.040;2023-02-26T09:27:28;18.00;44.00
61398;DHT22;47267;48.130;-2.040;2023-02-26T09:29:54;18.00;44.10
61398;DHT22;47267;48.130;-2.040;2023-02-26T09:32:20;18.00;44.00
61398;DHT22;47267;48.130;-2.040;2023-02-26T09:34:46;18.00;44.50
61398;DHT22;47267;48.130;-2.040;2023-02-26T09:37:11;18.00;44.10
61398;DHT22;47267;48.130;-2.040;2023-02-26T09:39:37;18.00;44.10
61398;DHT22;47267;48.130;-2.040;2023-02-26T09:44:59;18.00;44.30
61398;DHT22;47267;48.130;-2.040;2023-02-26T09:47:26;18.00;44.30
61398;DHT22;47267;48.130;-2.040;2023-02-26T09:50:00;18.00;44.40
61398;DHT22;47267;48.130;-2.040;2023-02-26T09:58:01;18.00;44.50
61398;DHT22;47267;48.130;-2.040;2023-02-26T10:00:52;18.00;44.60
61398;DHT22;47267;48.130;-2.040;2023-02-26T10:06:26;18.10;44.60
61398;DHT22;47267;48.130;-2.040;2023-02-26T10:11:43;18.10;45.30
61398;DHT22;47267;48.130;-2.040;2023-02-26T10:14:15;18.10;44.80
61398;DHT22;47267;48.130;-2.040;2023-02-26T10:16:50;18.10;45.10
61398;DHT22;47267;48.130;-2.040;2023-02-26T10:19:19;18.10;45.20
61398;DHT22;47267;48.130;-2.040;2023-02-26T10:21:51;18.10;45.30
61398;DHT22;47267;48.130;-2.040;2023-02-26T10:24:38;18.10;45.40
61398;DHT22;47267;48.130;-2.040;2023-02-26T10:27:12;18.20;45.50
61398;DHT22;47267;48.130;-2.040;2023-02-26T10:29:57;18.20;45.60
61398;DHT22;47267;48.130;-2.040;2023-02-26T10:32:42;18.20;45.60
61398;DHT22;47267;48.130;-2.040;2023-02-26T10:35:16;18.20;45.60
61398;DHT22;47267;48.130;-2.040;2023-02-26T10:37:56;18.20;45.60
61398;DHT22;47267;48.130;-2.040;2023-02-26T10:49:05;18.20;45.60
61398;DHT22;47267;48.130;-2.040;2023-02-26T10:51:37;18.20;45.60
61398;DHT22;47267;48.130;-2.040;2023-02-26T10:54:14;18.20;45.60
61398;DHT22;47267;48.130;-2.040;2023-02-26T10:56:41;18.30;45.60
61398;DHT22;47267;48.130;-2.040;2023-02-26T10:59:07;18.30;45.60
61398;DHT22;47267;48.130;-2.040;2023-02-26T11:01:33;18.30;45.60
61398;DHT22;47267;48.130;-2.040;2023-02-26T11:04:11;18.30;45.60
61398;DHT22;47267;48.130;-2.040;2023-02-26T11:06:42;18.30;45.60
61398;DHT22;47267;48.130;-2.040;2023-02-26T11:09:24;18.30;45.60
61398;DHT22;47267;48.130;-2.040;2023-02-26T11:11:54;18.30;45.60
61398;DHT22;47267;48.130;-2.040;2023-02-26T11:14:21;18.30;45.50
61398;DHT22;47267;48.130;-2.040;2023-02-26T11:16:55;18.30;45.50
61398;DHT22;47267;48.130;-2.040;2023-02-26T11:19:34;18.30;45.50
61398;DHT22;47267;48.130;-2.040;2023-02-26T11:22:01;18.30;45.50
61398;DHT22;47267;48.130;-2.040;2023-02-26T11:24:35;18.40;45.60
61398;DHT22;47267;48.130;-2.040;2023-02-26T11:27:04;18.30;45.50
61398;DHT22;47267;48.130;-2.040;2023-02-26T11:29:39;18.40;45.50
61398;DHT22;47267;48.130;-2.040;2023-02-26T11:32:06;18.40;45.50
61398;DHT22;47267;48.130;-2.040;2023-02-26T11:34:37;18.40;45.50
61398;DHT22;47267;48.130;-2.040;2023-02-26T11:37:04;18.40;45.50
61398;DHT22;47267;48.130;-2.040;2023-02-26T11:39:33;18.40;45.50
61398;DHT22;47267;48.130;-2.040;2023-02-26T11:42:01;18.40;45.50
61398;DHT22;47267;48.130;-2.040;2023-02-26T11:44:42;18.40;45.50
61398;DHT22;47267;48.130;-2.040;2023-02-26T11:47:23;18.40;45.50
61398;DHT22;47267;48.130;-2.040;2023-02-26T11:49:54;18.40;45.50
61398;DHT22;47267;48.130;-2.040;2023-02-26T11:52:22;18.40;45.40
61398;DHT22;47267;48.130;-2.040;2023-02-26T11:54:53;18.50;45.60
61398;DHT22;47267;48.130;-2.040;2023-02-26T11:57:24;18.50;45.50
61398;DHT22;47267;48.130;-2.040;2023-02-26T11:59:52;18.40;45.40
61398;DHT22;47267;48.130;-2.040;2023-02-26T12:02:21;18.40;45.40
61398;DHT22;47267;48.130;-2.040;2023-02-26T12:04:51;18.40;45.40
61398;DHT22;47267;48.130;-2.040;2023-02-26T12:07:18;18.40;45.40
61398;DHT22;47267;48.130;-2.040;2023-02-26T12:09:45;18.50;45.50
61398;DHT22;47267;48.130;-2.040;2023-02-26T12:12:41;18.50;45.50
61398;DHT22;47267;48.130;-2.040;2023-02-26T12:18:18;18.50;45.40
61398;DHT22;47267;48.130;-2.040;2023-02-26T12:26:25;18.50;45.40
61398;DHT22;47267;48.130;-2.040;2023-02-26T12:43:38;18.60;45.40
61398;DHT22;47267;48.130;-2.040;2023-02-26T12:51:48;18.60;45.40
61398;DHT22;47267;48.130;-2.040;2023-02-26T13:03:14;18.60;45.30
61398;DHT22;47267;48.130;-2.040;2023-02-26T13:20:23;18.70;45.30
61398;DHT22;47267;48.130;-2.040;2023-02-26T13:25:40;18.70;45.30
61398;DHT22;47267;48.130;-2.040;2023-02-26T13:30:52;18.70;45.30
61398;DHT22;47267;48.130;-2.040;2023-02-26T13:33:22;18.70;45.30
61398;DHT22;47267;48.130;-2.040;2023-02-26T13:35:50;18.80;45.30
61398;DHT22;47267;48.130;-2.040;2023-02-26T13:46:35;18.80;45.30
61398;DHT22;47267;48.130;-2.040;2023-02-26T13:49:24;18.80;45.30
61398;DHT22;47267;48.130;-2.040;2023-02-26T13:51:53;18.80;45.20
61398;DHT22;47267;48.130;-2.040;2023-02-26T13:54:44;18.80;45.20
61398;DHT22;47267;48.130;-2.040;2023-02-26T14:02:51;18.80;45.20
61398;DHT22;47267;48.130;-2.040;2023-02-26T14:11:23;18.90;45.20
61398;DHT22;47267;48.130;-2.040;2023-02-26T14:14:21;18.90;45.20
61398;DHT22;47267;48.130;-2.040;2023-02-26T14:22:23;18.90;45.20
61398;DHT22;47267;48.130;-2.040;2023-02-26T14:25:08;18.90;45.20
61398;DHT22;47267;48.130;-2.040;2023-02-26T14:27:40;18.90;45.20
61398;DHT22;47267;48.130;-2.040;2023-02-26T14:32:47;19.00;45.20
61398;DHT22;47267;48.130;-2.040;2023-02-26T14:40:22;19.00;45.20
61398;DHT22;47267;48.130;-2.040;2023-02-26T14:42:56;19.00;45.20
61398;DHT22;47267;48.130;-2.040;2023-02-26T14:45:29;19.00;45.20
61398;DHT22;47267;48.130;-2.040;2023-02-26T14:48:00;19.00;45.20
61398;DHT22;47267;48.130;-2.040;2023-02-26T14:50:44;19.00;45.20
61398;DHT22;47267;48.130;-2.040;2023-02-26T15:01:46;19.00;45.20
61398;DHT22;47267;48.130;-2.040;2023-02-26T15:08:03;19.00;45.20
61398;DHT22;47267;48.130;-2.040;2023-02-26T15:15:54;19.10;45.30
61398;DHT22;47267;48.130;-2.040;2023-02-26T15:21:49;19.10;45.30
61398;DHT22;47267;48.130;-2.040;2023-02-26T15:24:10;19.10;45.30
61398;DHT22;47267;48.130;-2.040;2023-02-26T15:26:45;19.10;45.30
61398;DHT22;47267;48.130;-2.040;2023-02-26T15:29:13;19.10;45.30
61398;DHT22;47267;48.130;-2.040;2023-02-26T15:31:45;19.10;45.20
61398;DHT22;47267;48.130;-2.040;2023-02-26T15:34:14;19.20;45.30
61398;DHT22;47267;48.130;-2.040;2023-02-26T15:36:45;19.10;45.20
61398;DHT22;47267;48.130;-2.040;2023-02-26T15:39:13;19.10;45.20
61398;DHT22;47267;48.130;-2.040;2023-02-26T15:41:41;19.20;45.20
61398;DHT22;47267;48.130;-2.040;2023-02-26T15:44:08;19.20;45.20
61398;DHT22;47267;48.130;-2.040;2023-02-26T15:46:40;19.20;45.20
61398;DHT22;47267;48.130;-2.040;2023-02-26T15:49:40;19.20;45.20
61398;DHT22;47267;48.130;-2.040;2023-02-26T15:52:09;19.20;45.80
61398;DHT22;47267;48.130;-2.040;2023-02-26T15:54:40;19.20;45.10
61398;DHT22;47267;48.130;-2.040;2023-02-26T15:57:09;19.20;45.10
61398;DHT22;47267;48.130;-2.040;2023-02-26T15:59:44;19.30;45.20
61398;DHT22;47267;48.130;-2.040;2023-02-26T16:02:13;19.20;45.00
61398;DHT22;47267;48.130;-2.040;2023-02-26T16:04:40;19.30;45.20
61398;DHT22;47267;48.130;-2.040;2023-02-26T16:07:09;19.30;45.20
61398;DHT22;47267;48.130;-2.040;2023-02-26T16:09:39;19.30;45.10
61398;DHT22;47267;48.130;-2.040;2023-02-26T16:12:11;19.30;45.10
61398;DHT22;47267;48.130;-2.040;2023-02-26T16:14:40;19.30;45.10
61398;DHT22;47267;48.130;-2.040;2023-02-26T16:17:11;19.30;45.10
61398;DHT22;47267;48.130;-2.040;2023-02-26T16:19:44;19.40;45.10
61398;DHT22;47267;48.130;-2.040;2023-02-26T16:25:05;19.40;45.10
61398;DHT22;47267;48.130;-2.040;2023-02-26T16:27:32;19.30;45.00
61398;DHT22;47267;48.130;-2.040;2023-02-26T16:30:01;19.40;45.10
61398;DHT22;47267;48.130;-2.040;2023-02-26T16:32:29;19.40;45.10
61398;DHT22;47267;48.130;-2.040;2023-02-26T16:34:59;19.40;45.10
61398;DHT22;47267;48.130;-2.040;2023-02-26T16:40:16;19.40;45.00
61398;DHT22;47267;48.130;-2.040;2023-02-26T16:43:28;19.40;45.00
61398;DHT22;47267;48.130;-2.040;2023-02-26T16:45:59;19.40;45.20
61398;DHT22;47267;48.130;-2.040;2023-02-26T16:48:32;19.40;45.20
61398;DHT22;47267;48.130;-2.040;2023-02-26T16:51:12;19.50;45.20
61398;DHT22;47267;48.130;-2.040;2023-02-26T16:56:26;19.50;45.20
61398;DHT22;47267;48.130;-2.040;2023-02-26T17:02:38;19.50;45.10
61398;DHT22;47267;48.130;-2.040;2023-02-26T17:04:46;19.50;45.00
61398;DHT22;47267;48.130;-2.040;2023-02-26T17:09:50;19.50;45.00
61398;DHT22;47267;48.130;-2.040;2023-02-26T17:12:20;19.50;45.00
61398;DHT22;47267;48.130;-2.040;2023-02-26T17:14:57;19.50;45.10
61398;DHT22;47267;48.130;-2.040;2023-02-26T17:17:25;19.50;45.10
61398;DHT22;47267;48.130;-2.040;2023-02-26T17:19:51;19.50;45.00
61398;DHT22;47267;48.130;-2.040;2023-02-26T17:22:24;19.60;45.10
61398;DHT22;47267;48.130;-2.040;2023-02-26T17:24:50;19.60;45.10
61398;DHT22;47267;48.130;-2.040;2023-02-26T17:27:32;19.60;45.10
61398;DHT22;47267;48.130;-2.040;2023-02-26T17:29:58;19.60;45.10
61398;DHT22;47267;48.130;-2.040;2023-02-26T17:32:26;19.60;45.10
61398;DHT22;47267;48.130;-2.040;2023-02-26T17:34:52;19.60;45.10
61398;DHT22;47267;48.130;-2.040;2023-02-26T17:37:19;19.60;45.10
61398;DHT22;47267;48.130;-2.040;2023-02-26T17:39:46;19.60;45.10
61398;DHT22;47267;48.130;-2.040;2023-02-26T17:42:17;19.60;45.00
61398;DHT22;47267;48.130;-2.040;2023-02-26T17:44:45;19.60;45.00
61398;DHT22;47267;48.130;-2.040;2023-02-26T17:47:16;19.60;45.00
61398;DHT22;47267;48.130;-2.040;2023-02-26T17:49:43;19.60;45.00
61398;DHT22;47267;48.130;-2.040;2023-02-26T17:52:09;19.60;45.10
61398;DHT22;47267;48.130;-2.040;2023-02-26T17:54:34;19.60;45.00
61398;DHT22;47267;48.130;-2.040;2023-02-26T17:57:00;19.60;45.00
61398;DHT22;47267;48.130;-2.040;2023-02-26T17:59:26;19.60;45.00
61398;DHT22;47267;48.130;-2.040;2023-02-26T18:01:53;19.60;45.00
61398;DHT22;47267;48.130;-2.040;2023-02-26T18:04:18;19.60;45.00
61398;DHT22;47267;48.130;-2.040;2023-02-26T18:06:44;19.60;45.00
61398;DHT22;47267;48.130;-2.040;2023-02-26T18:09:12;19.60;44.90
61398;DHT22;47267;48.130;-2.040;2023-02-26T18:11:38;19.60;45.00
61398;DHT22;47267;48.130;-2.040;2023-02-26T18:14:05;19.60;44.90
61398;DHT22;47267;48.130;-2.040;2023-02-26T18:16:41;19.60;45.00
61398;DHT22;47267;48.130;-2.040;2023-02-26T18:19:12;19.50;44.90
61398;DHT22;47267;48.130;-2.040;2023-02-26T18:21:38;19.50;44.80
61398;DHT22;47267;48.130;-2.040;2023-02-26T18:24:04;19.50;44.80
61398;DHT22;47267;48.130;-2.040;2023-02-26T18:26:31;19.50;44.80
61398;DHT22;47267;48.130;-2.040;2023-02-26T18:28:57;19.50;44.80
61398;DHT22;47267;48.130;-2.040;2023-02-26T18:31:24;19.50;44.80
61398;DHT22;47267;48.130;-2.040;2023-02-26T18:33:57;19.50;44.80
61398;DHT22;47267;48.130;-2.040;2023-02-26T18:36:25;19.40;44.70
61398;DHT22;47267;48.130;-2.040;2023-02-26T18:39:02;19.50;44.70
61398;DHT22;47267;48.130;-2.040;2023-02-26T18:41:29;19.40;44.40
61398;DHT22;47267;48.130;-2.040;2023-02-26T18:43:55;19.40;44.40
61398;DHT22;47267;48.130;-2.040;2023-02-26T18:46:21;19.40;44.30
61398;DHT22;47267;48.130;-2.040;2023-02-26T18:48:47;19.40;44.20
61398;DHT22;47267;48.130;-2.040;2023-02-26T18:51:13;19.30;44.10
61398;DHT22;47267;48.130;-2.040;2023-02-26T18:53:38;19.40;44.10
61398;DHT22;47267;48.130;-2.040;2023-02-26T18:56:05;19.30;44.00
61398;DHT22;47267;48.130;-2.040;2023-02-26T18:58:31;19.40;43.90